sensor_id;sensor_type;location;lat;lon;timestamp;temperature;humidity
36990;DHT22;22898;52.102;5.776;2023-02-02T00:00:08;11.10;99.90
36990;DHT22;22898;52.102;5.776;2023-02-02T00:02:34;11.20;99.90
36990;DHT22;22898;52.102;5.776;2023-02-02T00:04:59;11.20;99.90
36990;DHT22;22898;52.102;5.776;2023-02-02T00:07:25;11.40;99.90
36990;DHT22;22898;52.102;5.776;2023-02-02T00:09:50;11.50;99.90
36990;DHT22;22898;52.102;5.776;2023-02-02T00:12:16;11.70;99.90
36990;DHT22;22898;52.102;5.776;2023-02-02T00:14:41;11.70;99.90
36990;DHT22;22898;52.102;5.776;2023-02-02T00:17:09;11.70;99.90
36990;DHT22;22898;52.102;5.776;2023-02-02T00:19:35;11.60;99.90
36990;DHT22;22898;52.102;5.776;2023-02-02T00:22:01;11.70;99.90
36990;DHT22;22898;52.102;5.776;2023-02-02T00:24:26;11.80;99.90
36990;DHT22;22898;52.102;5.776;2023-02-02T00:26:55;11.60;99.90
36990;DHT22;22898;52.102;5.776;2023-02-02T00:29:27;11.60;99.90
36990;DHT22;22898;52.102;5.776;2023-02-02T00:31:53;11.40;99.90
36990;DHT22;22898;52.102;5.776;2023-02-02T00:34:20;11.20;99.90
36990;DHT22;22898;52.102;5.776;2023-02-02T00:36:46;10.90;99.90
36990;DHT22;22898;52.102;5.776;2023-02-02T00:39:15;10.80;99.90
36990;DHT22;22898;52.102;5.776;2023-02-02T00:41:41;11.00;99.90
36990;DHT22;22898;52.102;5.776;2023-02-02T00:44:06;10.90;99.90
36990;DHT22;22898;52.102;5.776;2023-02-02T00:46:50;10.90;99.90
36990;DHT22;22898;52.102;5.776;2023-02-02T00:49:16;10.70;99.90
36990;DHT22;22898;52.102;5.776;2023-02-02T00:51:41;10.70;99.90
36990;DHT22;22898;52.102;5.776;2023-02-02T00:54:07;10.90;99.90
36990;DHT22;22898;52.102;5.776;2023-02-02T00:56:32;11.00;99.90
36990;DHT22;22898;52.102;5.776;2023-02-02T00:58:58;10.90;99.90
36990;DHT22;22898;52.102;5.776;2023-02-02T01:01:24;11.10;99.90
36990;DHT22;22898;52.102;5.776;2023-02-02T01:03:50;11.10;99.90
36990;DHT22;22898;52.102;5.776;2023-02-02T01:06:18;11.30;99.90
36990;DHT22;22898;52.102;5.776;2023-02-02T01:08:43;11.40;99.90
36990;DHT22;22898;52.102;5.776;2023-02-02T01:11:09;11.90;99.90
36990;DHT22;22898;52.102;5.776;2023-02-02T01:13:35;12.10;99.90
36990;DHT22;22898;52.102;5.776;2023-02-02T01:16:01;12.20;99.90
36990;DHT22;22898;52.102;5.776;2023-02-02T01:18:28;12.40;99.90
36990;DHT22;22898;52.102;5.776;2023-02-02T01:21:02;12.20;99.90
36990;DHT22;22898;52.102;5.776;2023-02-02T01:23:28;12.20;99.90
36990;DHT22;22898;52.102;5.776;2023-02-02T01:25:55;12.00;99.90
36990;DHT22;22898;52.102;5.776;2023-02-02T01:28:22;11.80;99.90
36990;DHT22;22898;52.102;5.776;2023-02-02T01:30:48;11.40;99.90
36990;DHT22;22898;52.102;5.776;2023-02-02T01:33:14;11.00;99.90
36990;DHT22;22898;52.102;5.776;2023-02-02T01:35:54;11.10;99.90
36990;DHT22;22898;52.102;5.776;2023-02-02T01:38:21;10.80;99.90
36990;DHT22;22898;52.102;5.776;2023-02-02T01:40:55;10.80;99.90
36990;DHT22;22898;52.102;5.776;2023-02-02T01:43:25;11.30;99.90
36990;DHT22;22898;52.102;5.776;2023-02-02T01:45:51;11.40;99.90
36990;DHT22;22898;52.102;5.776;2023-02-02T01:48:31;11.20;99.90
36990;DHT22;22898;52.102;5.776;2023-02-02T01:51:01;11.10;99.90
36990;DHT22;22898;52.102;5.776;2023-02-02T01:53:28;11.20;99.90
36990;DHT22;22898;52.102;5.776;2023-02-02T01:55:55;11.30;99.90
36990;DHT22;22898;52.102;5.776;2023-02-02T01:58:25;11.00;99.90
36990;DHT22;22898;52.102;5.776;2023-02-02T02:00:51;10.90;99.90
36990;DHT22;22898;52.102;5.776;2023-02-02T02:03:20;11.10;99.90
36990;DHT22;22898;52.102;5.776;2023-02-02T02:05:52;11.40;99.90
36990;DHT22;22898;52.102;5.776;2023-02-02T02:08:23;11.40;99.90
36990;DHT22;22898;52.102;5.776;2023-02-02T02:10:50;11.20;99.90
36990;DHT22;22898;52.102;5.776;2023-02-02T02:13:16;11.10;99.90
36990;DHT22;22898;52.102;5.776;2023-02-02T02:15:55;11.10;99.90
36990;DHT22;22898;52.102;5.776;2023-02-02T02:24:49;11.10;99.90
36990;DHT22;22898;52.102;5.776;2023-02-02T02:30:40;10.60;99.90
36990;DHT22;22898;52.102;5.776;2023-02-02T02:33:33;10.60;99.90
36990;DHT22;22898;52.102;5.776;2023-02-02T02:36:09;10.20;99.90
36990;DHT22;22898;52.102;5.776;2023-02-02T02:38:44;10.40;99.90
36990;DHT22;22898;52.102;5.776;2023-02-02T02:41:18;10.30;99.90
36990;DHT22;22898;52.102;5.776;2023-02-02T02:43:50;10.50;99.90
36990;DHT22;22898;52.102;5.776;2023-02-02T02:46:17;10.60;99.90
36990;DHT22;22898;52.102;5.776;2023-02-02T02:48:46;10.70;99.90
36990;DHT22;22898;52.102;5.776;2023-02-02T02:53:59;10.80;99.90
36990;DHT22;22898;52.102;5.776;2023-02-02T02:56:43;10.90;99.90
36990;DHT22;22898;52.102;5.776;2023-02-02T03:08:31;10.60;99.90
36990;DHT22;22898;52.102;5.776;2023-02-02T03:10:39;10.90;99.90
36990;DHT22;22898;52.102;5.776;2023-02-02T03:13:08;11.00;99.90
36990;DHT22;22898;52.102;5.776;2023-02-02T03:15:34;10.60;99.90
36990;DHT22;22898;52.102;5.776;2023-02-02T03:17:59;10.40;99.90
36990;DHT22;22898;52.102;5.776;2023-02-02T03:20:25;10.30;99.90
36990;DHT22;22898;52.102;5.776;2023-02-02T03:22:50;10.30;99.90
36990;DHT22;22898;52.102;5.776;2023-02-02T03:25:16;10.40;99.90
36990;DHT22;22898;52.102;5.776;2023-02-02T03:27:42;10.50;99.90
36990;DHT22;22898;52.102;5.776;2023-02-02T03:30:10;10.70;99.90
36990;DHT22;22898;52.102;5.776;2023-02-02T03:32:36;10.60;99.90
36990;DHT22;22898;52.102;5.776;2023-02-02T03:35:03;10.50;99.90
36990;DHT22;22898;52.102;5.776;2023-02-02T03:37:28;10.20;99.90
36990;DHT22;22898;52.102;5.776;2023-02-02T03:39:54;10.40;99.90
36990;DHT22;22898;52.102;5.776;2023-02-02T03:42:19;10.30;99.90
36990;DHT22;22898;52.102;5.776;2023-02-02T03:44:45;10.20;99.90
36990;DHT22;22898;52.102;5.776;2023-02-02T03:47:10;10.10;99.90
36990;DHT22;22898;52.102;5.776;2023-02-02T03:49:36;10.00;99.90
36990;DHT22;22898;52.102;5.776;2023-02-02T03:52:02;9.90;99.90
36990;DHT22;22898;52.102;5.776;2023-02-02T03:54:29;10.10;99.90
36990;DHT22;22898;52.102;5.776;2023-02-02T03:56:55;10.30;99.90
36990;DHT22;22898;52.102;5.776;2023-02-02T03:59:21;10.40;99.90
36990;DHT22;22898;52.102;5.776;2023-02-02T04:01:46;10.40;99.90
36990;DHT22;22898;52.102;5.776;2023-02-02T04:04:12;10.20;99.90
36990;DHT22;22898;52.102;5.776;2023-02-02T04:06:37;10.60;99.90
36990;DHT22;22898;52.102;5.776;2023-02-02T04:09:03;10.50;99.90
36990;DHT22;22898;52.102;5.776;2023-02-02T04:11:29;10.40;99.90
36990;DHT22;22898;52.102;5.776;2023-02-02T04:13:54;10.50;99.90
36990;DHT22;22898;52.102;5.776;2023-02-02T04:16:20;10.90;99.90
36990;DHT22;22898;52.102;5.776;2023-02-02T04:18:46;11.20;99.90
36990;DHT22;22898;52.102;5.776;2023-02-02T04:21:11;11.20;99.90
36990;DHT22;22898;52.102;5.776;2023-02-02T04:23:37;11.10;99.90
36990;DHT22;22898;52.102;5.776;2023-02-02T04:26:03;10.60;99.90
36990;DHT22;22898;52.102;5.776;2023-02-02T04:28:29;10.40;99.90
36990;DHT22;22898;52.102;5.776;2023-02-02T04:30:55;10.50;99.90
36990;DHT22;22898;52.102;5.776;2023-02-02T04:33:22;10.70;99.90
36990;DHT22;22898;52.102;5.776;2023-02-02T04:35:48;10.60;99.90
36990;DHT22;22898;52.102;5.776;2023-02-02T04:38:14;10.40;99.90
36990;DHT22;22898;52.102;5.776;2023-02-02T04:40:42;10.80;99.90
36990;DHT22;22898;52.102;5.776;2023-02-02T04:43:09;10.60;99.90
36990;DHT22;22898;52.102;5.776;2023-02-02T04:45:34;10.50;99.90
36990;DHT22;22898;52.102;5.776;2023-02-02T04:48:00;10.40;99.90
36990;DHT22;22898;52.102;5.776;2023-02-02T04:50:26;10.00;99.90
36990;DHT22;22898;52.102;5.776;2023-02-02T04:52:52;10.20;99.90
36990;DHT22;22898;52.102;5.776;2023-02-02T04:55:17;10.40;99.90
36990;DHT22;22898;52.102;5.776;2023-02-02T04:57:43;10.50;99.90
36990;DHT22;22898;52.102;5.776;2023-02-02T05:00:09;10.50;99.90
36990;DHT22;22898;52.102;5.776;2023-02-02T05:02:39;10.60;99.90
36990;DHT22;22898;52.102;5.776;2023-02-02T05:05:07;10.70;99.90
36990;DHT22;22898;52.102;5.776;2023-02-02T05:07:33;10.50;99.90
36990;DHT22;22898;52.102;5.776;2023-02-02T05:09:58;10.40;99.90
36990;DHT22;22898;52.102;5.776;2023-02-02T05:12:24;10.10;99.90
36990;DHT22;22898;52.102;5.776;2023-02-02T05:14:50;10.20;99.90
36990;DHT22;22898;52.102;5.776;2023-02-02T05:17:15;10.50;99.90
36990;DHT22;22898;52.102;5.776;2023-02-02T05:19:41;10.50;99.90
36990;DHT22;22898;52.102;5.776;2023-02-02T05:22:07;10.20;99.90
36990;DHT22;22898;52.102;5.776;2023-02-02T05:24:32;10.10;99.90
36990;DHT22;22898;52.102;5.776;2023-02-02T05:26:58;9.90;99.90
36990;DHT22;22898;52.102;5.776;2023-02-02T05:29:28;10.00;99.90
36990;DHT22;22898;52.102;5.776;2023-02-02T05:31:54;9.90;99.90
36990;DHT22;22898;52.102;5.776;2023-02-02T05:34:20;10.30;99.90
36990;DHT22;22898;52.102;5.776;2023-02-02T05:36:46;10.40;99.90
36990;DHT22;22898;52.102;5.776;2023-02-02T05:39:12;10.50;99.90
36990;DHT22;22898;52.102;5.776;2023-02-02T05:41:38;10.70;99.90
36990;DHT22;22898;52.102;5.776;2023-02-02T05:44:03;10.50;99.90
36990;DHT22;22898;52.102;5.776;2023-02-02T05:46:29;10.50;99.90
36990;DHT22;22898;52.102;5.776;2023-02-02T05:48:55;10.60;99.90
36990;DHT22;22898;52.102;5.776;2023-02-02T05:51:28;10.60;99.90
36990;DHT22;22898;52.102;5.776;2023-02-02T05:53:55;10.50;99.90
36990;DHT22;22898;52.102;5.776;2023-02-02T05:56:20;10.70;99.90
36990;DHT22;22898;52.102;5.776;2023-02-02T05:58:46;11.00;99.90
36990;DHT22;22898;52.102;5.776;2023-02-02T06:01:17;11.10;99.90
36990;DHT22;22898;52.102;5.776;2023-02-02T06:03:43;10.90;99.90
36990;DHT22;22898;52.102;5.776;2023-02-02T06:06:09;11.10;99.90
36990;DHT22;22898;52.102;5.776;2023-02-02T06:08:34;10.60;99.90
36990;DHT22;22898;52.102;5.776;2023-02-02T06:11:20;10.40;99.90
36990;DHT22;22898;52.102;5.776;2023-02-02T06:13:46;10.60;99.90
36990;DHT22;22898;52.102;5.776;2023-02-02T06:16:12;10.90;99.90
36990;DHT22;22898;52.102;5.776;2023-02-02T06:18:37;10.90;99.90
36990;DHT22;22898;52.102;5.776;2023-02-02T06:21:04;10.70;99.90
36990;DHT22;22898;52.102;5.776;2023-02-02T06:23:31;10.30;99.90
36990;DHT22;22898;52.102;5.776;2023-02-02T06:25:57;10.30;99.90
36990;DHT22;22898;52.102;5.776;2023-02-02T06:28:23;10.50;99.90
36990;DHT22;22898;52.102;5.776;2023-02-02T06:30:48;10.40;99.90
36990;DHT22;22898;52.102;5.776;2023-02-02T06:33:16;10.40;99.90
36990;DHT22;22898;52.102;5.776;2023-02-02T06:35:42;10.60;99.90
36990;DHT22;22898;52.102;5.776;2023-02-02T06:38:08;10.40;99.90
36990;DHT22;22898;52.102;5.776;2023-02-02T06:40:33;10.50;99.90
36990;DHT22;22898;52.102;5.776;2023-02-02T06:43:01;10.60;99.90
36990;DHT22;22898;52.102;5.776;2023-02-02T06:45:28;10.70;99.90
36990;DHT22;22898;52.102;5.776;2023-02-02T06:47:53;10.80;99.90
36990;DHT22;22898;52.102;5.776;2023-02-02T06:50:22;10.70;99.90
36990;DHT22;22898;52.102;5.776;2023-02-02T06:52:49;10.80;99.90
36990;DHT22;22898;52.102;5.776;2023-02-02T06:55:17;10.80;99.90
36990;DHT22;22898;52.102;5.776;2023-02-02T06:57:43;10.90;99.90
36990;DHT22;22898;52.102;5.776;2023-02-02T07:00:10;10.70;99.90
36990;DHT22;22898;52.102;5.776;2023-02-02T07:02:35;10.70;99.90
36990;DHT22;22898;52.102;5.776;2023-02-02T07:05:01;10.80;99.90
36990;DHT22;22898;52.102;5.776;2023-02-02T07:07:31;10.90;99.90
36990;DHT22;22898;52.102;5.776;2023-02-02T07:09:56;11.10;99.90
36990;DHT22;22898;52.102;5.776;2023-02-02T07:12:22;11.20;99.90
36990;DHT22;22898;52.102;5.776;2023-02-02T07:14:48;11.00;99.90
36990;DHT22;22898;52.102;5.776;2023-02-02T07:17:17;10.70;99.90
36990;DHT22;22898;52.102;5.776;2023-02-02T07:19:43;10.40;99.90
36990;DHT22;22898;52.102;5.776;2023-02-02T07:22:09;10.40;99.90
36990;DHT22;22898;52.102;5.776;2023-02-02T07:24:34;10.30;99.90
36990;DHT22;22898;52.102;5.776;2023-02-02T07:27:03;10.60;99.90
36990;DHT22;22898;52.102;5.776;2023-02-02T07:29:28;10.30;99.90
36990;DHT22;22898;52.102;5.776;2023-02-02T07:31:54;10.20;99.90
36990;DHT22;22898;52.102;5.776;2023-02-02T07:34:19;10.40;99.90
36990;DHT22;22898;52.102;5.776;2023-02-02T07:36:45;10.60;99.90
36990;DHT22;22898;52.102;5.776;2023-02-02T07:39:11;10.30;99.90
36990;DHT22;22898;52.102;5.776;2023-02-02T07:41:37;10.20;99.90
36990;DHT22;22898;52.102;5.776;2023-02-02T07:44:04;10.40;99.90
36990;DHT22;22898;52.102;5.776;2023-02-02T07:46:30;10.50;99.90
36990;DHT22;22898;52.102;5.776;2023-02-02T07:48:56;10.30;99.90
36990;DHT22;22898;52.102;5.776;2023-02-02T07:51:23;10.00;99.90
36990;DHT22;22898;52.102;5.776;2023-02-02T07:53:51;10.10;99.90
36990;DHT22;22898;52.102;5.776;2023-02-02T07:56:25;10.30;99.90
36990;DHT22;22898;52.102;5.776;2023-02-02T07:58:53;10.30;99.90
36990;DHT22;22898;52.102;5.776;2023-02-02T08:01:19;10.40;99.90
36990;DHT22;22898;52.102;5.776;2023-02-02T08:03:47;10.60;99.90
36990;DHT22;22898;52.102;5.776;2023-02-02T08:06:27;10.60;99.90
36990;DHT22;22898;52.102;5.776;2023-02-02T08:08:54;11.10;99.90
36990;DHT22;22898;52.102;5.776;2023-02-02T08:11:21;11.10;99.90
36990;DHT22;22898;52.102;5.776;2023-02-02T08:13:49;11.30;99.90
36990;DHT22;22898;52.102;5.776;2023-02-02T08:16:19;11.10;99.90
36990;DHT22;22898;52.102;5.776;2023-02-02T08:18:45;11.00;99.90
36990;DHT22;22898;52.102;5.776;2023-02-02T08:21:11;11.30;99.90
36990;DHT22;22898;52.102;5.776;2023-02-02T08:23:38;11.40;99.90
36990;DHT22;22898;52.102;5.776;2023-02-02T08:26:09;11.10;99.90
36990;DHT22;22898;52.102;5.776;2023-02-02T08:28:36;11.00;99.90
36990;DHT22;22898;52.102;5.776;2023-02-02T08:31:19;11.20;99.90
36990;DHT22;22898;52.102;5.776;2023-02-02T08:33:46;10.70;99.90
36990;DHT22;22898;52.102;5.776;2023-02-02T08:36:17;10.80;99.90
36990;DHT22;22898;52.102;5.776;2023-02-02T08:38:43;10.80;99.90
36990;DHT22;22898;52.102;5.776;2023-02-02T08:41:11;11.20;99.90
36990;DHT22;22898;52.102;5.776;2023-02-02T08:43:38;10.90;99.90
36990;DHT22;22898;52.102;5.776;2023-02-02T08:46:05;10.80;99.90
36990;DHT22;22898;52.102;5.776;2023-02-02T08:48:31;10.70;99.90
36990;DHT22;22898;52.102;5.776;2023-02-02T08:50:57;10.60;99.90
36990;DHT22;22898;52.102;5.776;2023-02-02T08:53:24;10.60;99.90
36990;DHT22;22898;52.102;5.776;2023-02-02T08:56:08;10.60;99.90
36990;DHT22;22898;52.102;5.776;2023-02-02T08:58:34;10.30;99.90
36990;DHT22;22898;52.102;5.776;2023-02-02T09:01:10;10.50;99.90
36990;DHT22;22898;52.102;5.776;2023-02-02T09:03:37;11.20;99.90
36990;DHT22;22898;52.102;5.776;2023-02-02T09:06:13;11.10;99.90
36990;DHT22;22898;52.102;5.776;2023-02-02T09:08:43;11.10;99.90
36990;DHT22;22898;52.102;5.776;2023-02-02T09:11:19;11.10;99.90
36990;DHT22;22898;52.102;5.776;2023-02-02T09:13:46;11.10;99.90
36990;DHT22;22898;52.102;5.776;2023-02-02T09:16:16;11.20;99.90
36990;DHT22;22898;52.102;5.776;2023-02-02T09:18:42;11.60;99.90
36990;DHT22;22898;52.102;5.776;2023-02-02T09:21:12;11.80;99.90
36990;DHT22;22898;52.102;5.776;2023-02-02T09:23:39;11.60;99.90
36990;DHT22;22898;52.102;5.776;2023-02-02T09:28:46;11.20;99.90
36990;DHT22;22898;52.102;5.776;2023-02-02T09:31:13;11.20;99.90
36990;DHT22;22898;52.102;5.776;2023-02-02T09:33:39;11.30;99.90
36990;DHT22;22898;52.102;5.776;2023-02-02T09:36:10;11.40;99.90
36990;DHT22;22898;52.102;5.776;2023-02-02T09:38:37;11.20;99.90
36990;DHT22;22898;52.102;5.776;2023-02-02T09:46:36;11.80;99.90
36990;DHT22;22898;52.102;5.776;2023-02-02T09:49:11;11.40;99.90
36990;DHT22;22898;52.102;5.776;2023-02-02T09:51:45;11.50;99.90
36990;DHT22;22898;52.102;5.776;2023-02-02T09:54:21;11.70;99.90
36990;DHT22;22898;52.102;5.776;2023-02-02T09:56:51;11.60;99.90
36990;DHT22;22898;52.102;5.776;2023-02-02T09:59:23;11.50;99.90
36990;DHT22;22898;52.102;5.776;2023-02-02T10:01:54;11.50;99.90
36990;DHT22;22898;52.102;5.776;2023-02-02T10:04:35;11.70;99.90
36990;DHT22;22898;52.102;5.776;2023-02-02T10:07:33;11.80;99.90
36990;DHT22;22898;52.102;5.776;2023-02-02T10:10:26;12.00;99.90
36990;DHT22;22898;52.102;5.776;2023-02-02T10:15:40;12.20;99.90
36990;DHT22;22898;52.102;5.776;2023-02-02T10:20:50;11.40;99.90
36990;DHT22;22898;52.102;5.776;2023-02-02T10:23:29;11.10;99.90
36990;DHT22;22898;52.102;5.776;2023-02-02T10:26:13;10.90;99.90
36990;DHT22;22898;52.102;5.776;2023-02-02T10:42:16;11.50;99.90
36990;DHT22;22898;52.102;5.776;2023-02-02T10:45:13;11.60;99.90
36990;DHT22;22898;52.102;5.776;2023-02-02T10:47:43;11.70;99.90
36990;DHT22;22898;52.102;5.776;2023-02-02T10:52:51;11.80;99.90
36990;DHT22;22898;52.102;5.776;2023-02-02T11:00:42;11.60;99.90
36990;DHT22;22898;52.102;5.776;2023-02-02T11:03:17;11.80;99.90
36990;DHT22;22898;52.102;5.776;2023-02-02T11:05:44;11.70;99.90
36990;DHT22;22898;52.102;5.776;2023-02-02T11:08:43;12.00;99.90
36990;DHT22;22898;52.102;5.776;2023-02-02T11:11:17;12.00;99.90
36990;DHT22;22898;52.102;5.776;2023-02-02T11:14:12;11.70;99.90
36990;DHT22;22898;52.102;5.776;2023-02-02T11:16:44;12.00;99.90
36990;DHT22;22898;52.102;5.776;2023-02-02T11:19:22;12.50;99.90
36990;DHT22;22898;52.102;5.776;2023-02-02T11:21:53;12.40;99.90
36990;DHT22;22898;52.102;5.776;2023-02-02T11:24:29;11.90;99.90
36990;DHT22;22898;52.102;5.776;2023-02-02T11:29:47;11.90;99.90
36990;DHT22;22898;52.102;5.776;2023-02-02T11:34:41;11.80;99.90
36990;DHT22;22898;52.102;5.776;2023-02-02T11:37:19;11.90;99.90
36990;DHT22;22898;52.102;5.776;2023-02-02T11:39:45;12.10;99.90
36990;DHT22;22898;52.102;5.776;2023-02-02T11:42:22;12.30;99.90
36990;DHT22;22898;52.102;5.776;2023-02-02T11:45:14;12.40;99.90
36990;DHT22;22898;52.102;5.776;2023-02-02T11:47:40;12.50;99.90
36990;DHT22;22898;52.102;5.776;2023-02-02T11:50:19;12.10;99.90
36990;DHT22;22898;52.102;5.776;2023-02-02T11:52:47;12.00;99.90
36990;DHT22;22898;52.102;5.776;2023-02-02T11:55:25;12.00;99.90
36990;DHT22;22898;52.102;5.776;2023-02-02T12:01:03;11.80;99.90
36990;DHT22;22898;52.102;5.776;2023-02-02T12:03:33;11.70;99.90
36990;DHT22;22898;52.102;5.776;2023-02-02T12:05:59;11.70;99.90
36990;DHT22;22898;52.102;5.776;2023-02-02T12:08:27;11.50;99.90
36990;DHT22;22898;52.102;5.776;2023-02-02T12:11:03;11.50;99.90
36990;DHT22;22898;52.102;5.776;2023-02-02T12:16:37;12.00;99.90
36990;DHT22;22898;52.102;5.776;2023-02-02T12:19:27;12.00;99.90
36990;DHT22;22898;52.102;5.776;2023-02-02T12:22:19;12.30;99.90
36990;DHT22;22898;52.102;5.776;2023-02-02T12:30:17;13.20;99.90
36990;DHT22;22898;52.102;5.776;2023-02-02T12:35:39;11.70;99.90
36990;DHT22;22898;52.102;5.776;2023-02-02T12:38:25;11.40;99.90
36990;DHT22;22898;52.102;5.776;2023-02-02T12:43:48;11.60;99.90
36990;DHT22;22898;52.102;5.776;2023-02-02T12:48:55;12.10;99.90
36990;DHT22;22898;52.102;5.776;2023-02-02T12:54:11;11.80;99.90
36990;DHT22;22898;52.102;5.776;2023-02-02T13:00:43;12.30;99.90
36990;DHT22;22898;52.102;5.776;2023-02-02T13:08:32;11.90;99.90
36990;DHT22;22898;52.102;5.776;2023-02-02T13:11:08;11.60;99.90
36990;DHT22;22898;52.102;5.776;2023-02-02T13:13:56;11.40;99.90
36990;DHT22;22898;52.102;5.776;2023-02-02T13:16:23;11.00;99.90
36990;DHT22;22898;52.102;5.776;2023-02-02T13:18:58;10.80;99.90
36990;DHT22;22898;52.102;5.776;2023-02-02T13:21:26;11.00;99.90
36990;DHT22;22898;52.102;5.776;2023-02-02T13:23:59;10.90;99.90
36990;DHT22;22898;52.102;5.776;2023-02-02T13:26:30;11.00;99.90
36990;DHT22;22898;52.102;5.776;2023-02-02T13:29:05;11.30;99.90
36990;DHT22;22898;52.102;5.776;2023-02-02T13:31:41;11.40;99.90
36990;DHT22;22898;52.102;5.776;2023-02-02T13:34:28;11.30;99.90
36990;DHT22;22898;52.102;5.776;2023-02-02T13:37:12;11.70;99.90
36990;DHT22;22898;52.102;5.776;2023-02-02T13:39:53;11.30;99.90
36990;DHT22;22898;52.102;5.776;2023-02-02T13:42:31;11.40;99.90
36990;DHT22;22898;52.102;5.776;2023-02-02T13:45:05;11.60;99.90
36990;DHT22;22898;52.102;5.776;2023-02-02T13:47:43;11.70;99.90
36990;DHT22;22898;52.102;5.776;2023-02-02T13:50:16;11.50;99.90
36990;DHT22;22898;52.102;5.776;2023-02-02T13:53:49;11.70;99.90
36990;DHT22;22898;52.102;5.776;2023-02-02T13:58:26;13.10;99.90
36990;DHT22;22898;52.102;5.776;2023-02-02T14:01:01;12.60;99.90
36990;DHT22;22898;52.102;5.776;2023-02-02T14:03:35;12.20;99.90
36990;DHT22;22898;52.102;5.776;2023-02-02T14:06:14;12.40;99.90
36990;DHT22;22898;52.102;5.776;2023-02-02T14:08:56;12.50;99.90
36990;DHT22;22898;52.102;5.776;2023-02-02T14:14:17;11.80;99.90
36990;DHT22;22898;52.102;5.776;2023-02-02T14:17:00;11.80;99.90
36990;DHT22;22898;52.102;5.776;2023-02-02T14:24:43;11.10;99.90
36990;DHT22;22898;52.102;5.776;2023-02-02T14:29:56;11.40;99.90
36990;DHT22;22898;52.102;5.776;2023-02-02T14:34:58;11.50;99.90
36990;DHT22;22898;52.102;5.776;2023-02-02T14:43:07;11.70;99.90
36990;DHT22;22898;52.102;5.776;2023-02-02T14:48:38;11.40;99.90
36990;DHT22;22898;52.102;5.776;2023-02-02T14:53:52;11.90;99.90
36990;DHT22;22898;52.102;5.776;2023-02-02T14:56:20;11.70;99.90
36990;DHT22;22898;52.102;5.776;2023-02-02T14:58:56;11.90;99.90
36990;DHT22;22898;52.102;5.776;2023-02-02T15:01:32;11.80;99.90
36990;DHT22;22898;52.102;5.776;2023-02-02T15:06:47;11.30;99.90
36990;DHT22;22898;52.102;5.776;2023-02-02T15:19:44;11.00;99.90
36990;DHT22;22898;52.102;5.776;2023-02-02T15:24:51;11.00;99.90
36990;DHT22;22898;52.102;5.776;2023-02-02T15:27:18;11.20;99.90
36990;DHT22;22898;52.102;5.776;2023-02-02T15:29:52;11.30;99.90
36990;DHT22;22898;52.102;5.776;2023-02-02T15:32:22;11.50;99.90
36990;DHT22;22898;52.102;5.776;2023-02-02T15:34:52;11.80;99.90
36990;DHT22;22898;52.102;5.776;2023-02-02T15:37:22;11.40;99.90
36990;DHT22;22898;52.102;5.776;2023-02-02T15:39:54;11.00;99.90
36990;DHT22;22898;52.102;5.776;2023-02-02T15:42:38;11.00;99.90
36990;DHT22;22898;52.102;5.776;2023-02-02T15:48:25;11.60;99.90
36990;DHT22;22898;52.102;5.776;2023-02-02T15:50:55;11.90;99.90
36990;DHT22;22898;52.102;5.776;2023-02-02T15:53:27;11.50;99.90
36990;DHT22;22898;52.102;5.776;2023-02-02T15:55:54;11.50;99.90
36990;DHT22;22898;52.102;5.776;2023-02-02T15:58:32;11.50;99.90
36990;DHT22;22898;52.102;5.776;2023-02-02T16:01:04;11.90;99.90
36990;DHT22;22898;52.102;5.776;2023-02-02T16:03:47;12.10;99.90
36990;DHT22;22898;52.102;5.776;2023-02-02T16:06:14;12.20;99.90
36990;DHT22;22898;52.102;5.776;2023-02-02T16:08:41;11.80;99.90
36990;DHT22;22898;52.102;5.776;2023-02-02T16:13:35;11.80;99.90
36990;DHT22;22898;52.102;5.776;2023-02-02T16:16:04;11.80;99.90
36990;DHT22;22898;52.102;5.776;2023-02-02T16:18:32;11.80;99.90
36990;DHT22;22898;52.102;5.776;2023-02-02T16:21:00;11.70;99.90
36990;DHT22;22898;52.102;5.776;2023-02-02T16:23:33;11.90;99.90
36990;DHT22;22898;52.102;5.776;2023-02-02T16:26:02;11.90;99.90
36990;DHT22;22898;52.102;5.776;2023-02-02T16:28:29;12.00;99.90
36990;DHT22;22898;52.102;5.776;2023-02-02T16:30:58;11.90;99.90
36990;DHT22;22898;52.102;5.776;2023-02-02T16:33:31;11.90;99.90
36990;DHT22;22898;52.102;5.776;2023-02-02T16:35:58;12.20;99.90
36990;DHT22;22898;52.102;5.776;2023-02-02T16:38:33;12.20;99.90
36990;DHT22;22898;52.102;5.776;2023-02-02T16:41:08;12.00;99.90
36990;DHT22;22898;52.102;5.776;2023-02-02T16:43:35;11.70;99.90
36990;DHT22;22898;52.102;5.776;2023-02-02T16:46:08;11.60;99.90
36990;DHT22;22898;52.102;5.776;2023-02-02T16:48:36;11.30;99.90
36990;DHT22;22898;52.102;5.776;2023-02-02T16:53:27;11.50;99.90
36990;DHT22;22898;52.102;5.776;2023-02-02T16:55:53;11.20;99.90
36990;DHT22;22898;52.102;5.776;2023-02-02T16:58:20;11.40;99.90
36990;DHT22;22898;52.102;5.776;2023-02-02T17:03:32;11.60;99.90
36990;DHT22;22898;52.102;5.776;2023-02-02T17:05:59;11.60;99.90
36990;DHT22;22898;52.102;5.776;2023-02-02T17:08:35;11.90;99.90
36990;DHT22;22898;52.102;5.776;2023-02-02T17:13:45;12.00;99.90
36990;DHT22;22898;52.102;5.776;2023-02-02T17:16:14;12.00;99.90
36990;DHT22;22898;52.102;5.776;2023-02-02T17:18:43;11.90;99.90
36990;DHT22;22898;52.102;5.776;2023-02-02T17:21:14;11.60;99.90
36990;DHT22;22898;52.102;5.776;2023-02-02T17:23:41;11.30;99.90
36990;DHT22;22898;52.102;5.776;2023-02-02T17:26:08;11.60;99.90
36990;DHT22;22898;52.102;5.776;2023-02-02T17:28:34;11.10;99.90
36990;DHT22;22898;52.102;5.776;2023-02-02T17:31:05;11.10;99.90
36990;DHT22;22898;52.102;5.776;2023-02-02T17:33:33;11.50;99.90
36990;DHT22;22898;52.102;5.776;2023-02-02T17:35:59;11.70;99.90
36990;DHT22;22898;52.102;5.776;2023-02-02T17:38:25;11.50;99.90
36990;DHT22;22898;52.102;5.776;2023-02-02T17:40:55;11.40;99.90
36990;DHT22;22898;52.102;5.776;2023-02-02T17:43:21;11.30;99.90
36990;DHT22;22898;52.102;5.776;2023-02-02T17:45:47;11.20;99.90
36990;DHT22;22898;52.102;5.776;2023-02-02T17:48:13;11.20;99.90
36990;DHT22;22898;52.102;5.776;2023-02-02T17:50:40;11.20;99.90
36990;DHT22;22898;52.102;5.776;2023-02-02T17:53:09;11.50;99.90
36990;DHT22;22898;52.102;5.776;2023-02-02T17:55:37;11.50;99.90
36990;DHT22;22898;52.102;5.776;2023-02-02T17:58:04;11.60;99.90
36990;DHT22;22898;52.102;5.776;2023-02-02T18:00:29;11.60;99.90
36990;DHT22;22898;52.102;5.776;2023-02-02T18:03:20;11.30;99.90
36990;DHT22;22898;52.102;5.776;2023-02-02T18:05:46;11.50;99.90
36990;DHT22;22898;52.102;5.776;2023-02-02T18:08:12;11.60;99.90
36990;DHT22;22898;52.102;5.776;2023-02-02T18:10:39;11.90;99.90
36990;DHT22;22898;52.102;5.776;2023-02-02T18:13:04;12.10;99.90
36990;DHT22;22898;52.102;5.776;2023-02-02T18:15:30;12.00;99.90